sensor_id;sensor_type;location;lat;lon;timestamp;temperature;humidity
21616;DHT22;10970;48.714;9.584;2023-03-24T00:00:08;13.90;99.90
21616;DHT22;10970;48.714;9.584;2023-03-24T00:02:38;13.80;99.90
21616;DHT22;10970;48.714;9.584;2023-03-24T00:05:08;13.60;99.90
21616;DHT22;10970;48.714;9.584;2023-03-24T00:07:35;13.50;99.90
21616;DHT22;10970;48.714;9.584;2023-03-24T00:10:05;13.40;99.90
21616;DHT22;10970;48.714;9.584;2023-03-24T00:12:32;13.40;99.90
21616;DHT22;10970;48.714;9.584;2023-03-24T00:14:58;13.40;99.90
21616;DHT22;10970;48.714;9.584;2023-03-24T00:17:27;13.50;99.90
21616;DHT22;10970;48.714;9.584;2023-03-24T00:19:53;13.50;99.90
21616;DHT22;10970;48.714;9.584;2023-03-24T00:22:20;13.50;99.90
21616;DHT22;10970;48.714;9.584;2023-03-24T00:24:46;13.50;99.90
21616;DHT22;10970;48.714;9.584;2023-03-24T00:27:12;13.50;99.90
21616;DHT22;10970;48.714;9.584;2023-03-24T00:29:39;13.40;99.90
21616;DHT22;10970;48.714;9.584;2023-03-24T00:32:05;13.40;99.90
21616;DHT22;10970;48.714;9.584;2023-03-24T00:34:32;13.40;99.90
21616;DHT22;10970;48.714;9.584;2023-03-24T00:37:03;13.50;99.90
21616;DHT22;10970;48.714;9.584;2023-03-24T00:39:30;13.50;99.90
21616;DHT22;10970;48.714;9.584;2023-03-24T00:41:56;13.50;99.90
21616;DHT22;10970;48.714;9.584;2023-03-24T00:44:23;13.60;99.90
21616;DHT22;10970;48.714;9.584;2023-03-24T00:46:50;13.60;99.90
21616;DHT22;10970;48.714;9.584;2023-03-24T00:49:25;13.70;99.90
21616;DHT22;10970;48.714;9.584;2023-03-24T00:52:21;13.80;99.90
21616;DHT22;10970;48.714;9.584;2023-03-24T00:54:52;13.80;99.90
21616;DHT22;10970;48.714;9.584;2023-03-24T00:57:22;13.90;99.90
21616;DHT22;10970;48.714;9.584;2023-03-24T00:59:51;13.80;99.90
21616;DHT22;10970;48.714;9.584;2023-03-24T01:02:24;13.70;99.90
21616;DHT22;10970;48.714;9.584;2023-03-24T01:04:54;13.70;99.90
21616;DHT22;10970;48.714;9.584;2023-03-24T01:07:21;13.60;99.90
21616;DHT22;10970;48.714;9.584;2023-03-24T01:09:49;13.60;99.90
21616;DHT22;10970;48.714;9.584;2023-03-24T01:12:42;13.90;99.90
21616;DHT22;10970;48.714;9.584;2023-03-24T01:15:13;14.10;99.90
21616;DHT22;10970;48.714;9.584;2023-03-24T01:17:39;14.20;99.90
21616;DHT22;10970;48.714;9.584;2023-03-24T01:20:06;14.00;99.90
21616;DHT22;10970;48.714;9.584;2023-03-24T01:22:33;14.00;99.90
21616;DHT22;10970;48.714;9.584;2023-03-24T01:25:03;14.00;99.90
21616;DHT22;10970;48.714;9.584;2023-03-24T01:27:29;13.90;99.90
21616;DHT22;10970;48.714;9.584;2023-03-24T01:30:03;13.90;99.90
21616;DHT22;10970;48.714;9.584;2023-03-24T01:32:29;13.90;99.90
21616;DHT22;10970;48.714;9.584;2023-03-24T01:34:55;13.80;99.90
21616;DHT22;10970;48.714;9.584;2023-03-24T01:37:20;13.90;99.90
21616;DHT22;10970;48.714;9.584;2023-03-24T01:39:48;13.80;99.90
21616;DHT22;10970;48.714;9.584;2023-03-24T01:42:20;13.70;99.90
21616;DHT22;10970;48.714;9.584;2023-03-24T01:44:47;13.70;99.90
21616;DHT22;10970;48.714;9.584;2023-03-24T01:47:13;13.60;99.90
21616;DHT22;10970;48.714;9.584;2023-03-24T01:52:20;13.90;99.90
21616;DHT22;10970;48.714;9.584;2023-03-24T01:54:52;14.10;99.90
21616;DHT22;10970;48.714;9.584;2023-03-24T01:57:40;14.00;99.90
21616;DHT22;10970;48.714;9.584;2023-03-24T02:00:09;14.10;99.90
21616;DHT22;10970;48.714;9.584;2023-03-24T02:02:37;14.10;99.90
21616;DHT22;10970;48.714;9.584;2023-03-24T02:05:07;14.10;99.90
21616;DHT22;10970;48.714;9.584;2023-03-24T02:07:40;14.10;99.90
21616;DHT22;10970;48.714;9.584;2023-03-24T02:10:11;14.00;99.90
21616;DHT22;10970;48.714;9.584;2023-03-24T02:12:38;14.00;99.90
21616;DHT22;10970;48.714;9.584;2023-03-24T02:15:05;13.80;99.90
21616;DHT22;10970;48.714;9.584;2023-03-24T02:17:47;13.70;99.90
21616;DHT22;10970;48.714;9.584;2023-03-24T02:25:36;13.30;99.90
21616;DHT22;10970;48.714;9.584;2023-03-24T02:34:16;13.60;99.90
21616;DHT22;10970;48.714;9.584;2023-03-24T02:45:24;13.60;99.90
21616;DHT22;10970;48.714;9.584;2023-03-24T02:51:06;13.20;99.90
21616;DHT22;10970;48.714;9.584;2023-03-24T02:53:45;13.10;99.90
21616;DHT22;10970;48.714;9.584;2023-03-24T02:56:21;13.10;99.90
21616;DHT22;10970;48.714;9.584;2023-03-24T02:58:57;13.20;99.90
21616;DHT22;10970;48.714;9.584;2023-03-24T03:04:08;13.40;99.90
21616;DHT22;10970;48.714;9.584;2023-03-24T03:06:38;13.40;99.90
21616;DHT22;10970;48.714;9.584;2023-03-24T03:09:11;13.40;99.90
21616;DHT22;10970;48.714;9.584;2023-03-24T03:11:41;13.40;99.90
21616;DHT22;10970;48.714;9.584;2023-03-24T03:14:12;13.40;99.90
21616;DHT22;10970;48.714;9.584;2023-03-24T03:16:46;13.40;99.90
21616;DHT22;10970;48.714;9.584;2023-03-24T03:19:23;13.50;99.90
21616;DHT22;10970;48.714;9.584;2023-03-24T03:21:51;13.50;99.90
21616;DHT22;10970;48.714;9.584;2023-03-24T03:24:21;13.40;99.90
21616;DHT22;10970;48.714;9.584;2023-03-24T03:26:54;13.40;99.90
21616;DHT22;10970;48.714;9.584;2023-03-24T03:29:26;13.40;99.90
21616;DHT22;10970;48.714;9.584;2023-03-24T03:32:00;13.40;99.90
21616;DHT22;10970;48.714;9.584;2023-03-24T03:35:05;13.50;99.90
21616;DHT22;10970;48.714;9.584;2023-03-24T03:40:31;13.30;99.90
21616;DHT22;10970;48.714;9.584;2023-03-24T03:42:59;13.30;99.90
21616;DHT22;10970;48.714;9.584;2023-03-24T03:45:25;13.10;99.90
21616;DHT22;10970;48.714;9.584;2023-03-24T03:47:51;13.00;99.90
21616;DHT22;10970;48.714;9.584;2023-03-24T03:50:17;12.90;99.90
21616;DHT22;10970;48.714;9.584;2023-03-24T03:52:43;12.80;99.90
21616;DHT22;10970;48.714;9.584;2023-03-24T03:55:09;12.80;99.90
21616;DHT22;10970;48.714;9.584;2023-03-24T03:57:36;12.80;99.90
21616;DHT22;10970;48.714;9.584;2023-03-24T04:00:04;12.80;99.90
21616;DHT22;10970;48.714;9.584;2023-03-24T04:05:43;12.80;99.90
21616;DHT22;10970;48.714;9.584;2023-03-24T04:26:33;13.00;99.90
21616;DHT22;10970;48.714;9.584;2023-03-24T04:31:52;13.00;99.90
21616;DHT22;10970;48.714;9.584;2023-03-24T04:34:32;13.00;99.90
21616;DHT22;10970;48.714;9.584;2023-03-24T04:37:07;13.00;99.90
21616;DHT22;10970;48.714;9.584;2023-03-24T04:39:40;13.00;99.90
21616;DHT22;10970;48.714;9.584;2023-03-24T04:42:18;13.10;99.90
21616;DHT22;10970;48.714;9.584;2023-03-24T04:44:45;13.10;99.90
21616;DHT22;10970;48.714;9.584;2023-03-24T04:47:11;13.10;99.90
21616;DHT22;10970;48.714;9.584;2023-03-24T04:49:38;13.20;99.90
21616;DHT22;10970;48.714;9.584;2023-03-24T04:52:05;13.30;99.90
21616;DHT22;10970;48.714;9.584;2023-03-24T04:54:31;13.30;99.90
21616;DHT22;10970;48.714;9.584;2023-03-24T04:56:59;13.40;99.90
21616;DHT22;10970;48.714;9.584;2023-03-24T04:59:29;13.40;99.90
21616;DHT22;10970;48.714;9.584;2023-03-24T05:01:55;13.40;99.90
21616;DHT22;10970;48.714;9.584;2023-03-24T05:04:23;13.50;99.90
21616;DHT22;10970;48.714;9.584;2023-03-24T05:06:50;13.50;99.90
21616;DHT22;10970;48.714;9.584;2023-03-24T05:09:17;13.40;99.90
21616;DHT22;10970;48.714;9.584;2023-03-24T05:11:44;13.20;99.90
21616;DHT22;10970;48.714;9.584;2023-03-24T05:14:10;13.10;99.90
21616;DHT22;10970;48.714;9.584;2023-03-24T05:16:36;13.00;99.90
21616;DHT22;10970;48.714;9.584;2023-03-24T05:19:02;13.10;99.90
21616;DHT22;10970;48.714;9.584;2023-03-24T05:21:28;13.10;99.90
21616;DHT22;10970;48.714;9.584;2023-03-24T05:23:54;13.20;99.90
21616;DHT22;10970;48.714;9.584;2023-03-24T05:26:20;13.20;99.90
21616;DHT22;10970;48.714;9.584;2023-03-24T05:28:45;13.20;99.90
21616;DHT22;10970;48.714;9.584;2023-03-24T05:31:11;13.20;99.90
21616;DHT22;10970;48.714;9.584;2023-03-24T05:33:36;12.90;99.90
21616;DHT22;10970;48.714;9.584;2023-03-24T05:36:02;12.80;99.90
21616;DHT22;10970;48.714;9.584;2023-03-24T05:38:28;12.80;99.90
21616;DHT22;10970;48.714;9.584;2023-03-24T05:40:58;12.90;99.90
21616;DHT22;10970;48.714;9.584;2023-03-24T05:43:24;12.90;99.90
21616;DHT22;10970;48.714;9.584;2023-03-24T05:45:50;13.00;99.90
21616;DHT22;10970;48.714;9.584;2023-03-24T05:48:16;12.80;99.90
21616;DHT22;10970;48.714;9.584;2023-03-24T05:50:42;12.40;99.90
21616;DHT22;10970;48.714;9.584;2023-03-24T05:53:08;12.10;99.90
21616;DHT22;10970;48.714;9.584;2023-03-24T05:55:34;11.80;99.90
21616;DHT22;10970;48.714;9.584;2023-03-24T05:58:00;11.80;99.90
21616;DHT22;10970;48.714;9.584;2023-03-24T06:00:28;11.70;99.90
21616;DHT22;10970;48.714;9.584;2023-03-24T06:02:55;11.70;99.90
21616;DHT22;10970;48.714;9.584;2023-03-24T06:05:21;11.70;99.90
21616;DHT22;10970;48.714;9.584;2023-03-24T06:07:46;11.70;99.90
21616;DHT22;10970;48.714;9.584;2023-03-24T06:10:12;11.70;99.90
21616;DHT22;10970;48.714;9.584;2023-03-24T06:12:39;11.70;99.90
21616;DHT22;10970;48.714;9.584;2023-03-24T06:15:06;11.70;99.90
21616;DHT22;10970;48.714;9.584;2023-03-24T06:17:33;11.70;99.90
21616;DHT22;10970;48.714;9.584;2023-03-24T06:19:59;11.70;99.90
21616;DHT22;10970;48.714;9.584;2023-03-24T06:22:32;11.70;99.90
21616;DHT22;10970;48.714;9.584;2023-03-24T06:24:57;11.80;99.90
21616;DHT22;10970;48.714;9.584;2023-03-24T06:27:25;11.80;99.90
21616;DHT22;10970;48.714;9.584;2023-03-24T06:29:55;11.80;99.90
21616;DHT22;10970;48.714;9.584;2023-03-24T06:32:21;11.80;99.90
21616;DHT22;10970;48.714;9.584;2023-03-24T06:34:47;11.90;99.90
21616;DHT22;10970;48.714;9.584;2023-03-24T06:37:13;11.90;99.90
21616;DHT22;10970;48.714;9.584;2023-03-24T06:39:39;12.00;99.90
21616;DHT22;10970;48.714;9.584;2023-03-24T06:42:05;12.00;99.90
21616;DHT22;10970;48.714;9.584;2023-03-24T06:44:31;12.10;99.90
21616;DHT22;10970;48.714;9.584;2023-03-24T06:46:57;12.10;99.90
21616;DHT22;10970;48.714;9.584;2023-03-24T06:49:23;12.10;99.90
21616;DHT22;10970;48.714;9.584;2023-03-24T06:51:49;12.20;99.90
21616;DHT22;10970;48.714;9.584;2023-03-24T06:54:15;12.20;99.90
21616;DHT22;10970;48.714;9.584;2023-03-24T06:56:41;12.20;99.90
21616;DHT22;10970;48.714;9.584;2023-03-24T06:59:07;12.30;99.90
21616;DHT22;10970;48.714;9.584;2023-03-24T07:01:33;12.30;99.90
21616;DHT22;10970;48.714;9.584;2023-03-24T07:04:01;12.30;99.90
21616;DHT22;10970;48.714;9.584;2023-03-24T07:06:26;12.30;99.90
21616;DHT22;10970;48.714;9.584;2023-03-24T07:08:54;12.30;99.90
21616;DHT22;10970;48.714;9.584;2023-03-24T07:11:20;12.40;99.90
21616;DHT22;10970;48.714;9.584;2023-03-24T07:13:45;12.30;99.90
21616;DHT22;10970;48.714;9.584;2023-03-24T07:16:11;12.40;99.90
21616;DHT22;10970;48.714;9.584;2023-03-24T07:18:37;12.50;99.90
21616;DHT22;10970;48.714;9.584;2023-03-24T07:21:03;12.50;99.90
21616;DHT22;10970;48.714;9.584;2023-03-24T07:23:29;12.50;99.90
21616;DHT22;10970;48.714;9.584;2023-03-24T07:25:55;12.50;99.90
21616;DHT22;10970;48.714;9.584;2023-03-24T07:28:21;12.60;99.90
21616;DHT22;10970;48.714;9.584;2023-03-24T07:30:46;12.60;99.90
21616;DHT22;10970;48.714;9.584;2023-03-24T07:33:12;12.60;99.90
21616;DHT22;10970;48.714;9.584;2023-03-24T07:35:38;12.60;99.90
21616;DHT22;10970;48.714;9.584;2023-03-24T07:38:04;12.50;99.90
21616;DHT22;10970;48.714;9.584;2023-03-24T07:40:30;12.50;99.90
21616;DHT22;10970;48.714;9.584;2023-03-24T07:42:59;12.40;99.90
21616;DHT22;10970;48.714;9.584;2023-03-24T07:45:25;12.40;99.90
21616;DHT22;10970;48.714;9.584;2023-03-24T07:47:52;12.40;99.90
21616;DHT22;10970;48.714;9.584;2023-03-24T07:50:18;12.30;99.90
21616;DHT22;10970;48.714;9.584;2023-03-24T07:52:49;12.30;99.90
21616;DHT22;10970;48.714;9.584;2023-03-24T07:55:15;12.30;99.90
21616;DHT22;10970;48.714;9.584;2023-03-24T07:57:48;12.30;99.90
21616;DHT22;10970;48.714;9.584;2023-03-24T08:00:15;12.20;99.90
21616;DHT22;10970;48.714;9.584;2023-03-24T08:02:47;12.30;99.90
21616;DHT22;10970;48.714;9.584;2023-03-24T08:05:14;12.20;99.90
21616;DHT22;10970;48.714;9.584;2023-03-24T08:07:45;12.30;99.90
21616;DHT22;10970;48.714;9.584;2023-03-24T08:10:19;12.30;99.90
21616;DHT22;10970;48.714;9.584;2023-03-24T08:12:46;12.20;99.90
21616;DHT22;10970;48.714;9.584;2023-03-24T08:15:12;12.20;99.90
21616;DHT22;10970;48.714;9.584;2023-03-24T08:17:38;12.20;99.90
21616;DHT22;10970;48.714;9.584;2023-03-24T08:20:04;12.30;99.90
21616;DHT22;10970;48.714;9.584;2023-03-24T08:22:35;12.30;99.90
21616;DHT22;10970;48.714;9.584;2023-03-24T08:25:01;12.30;99.90
21616;DHT22;10970;48.714;9.584;2023-03-24T08:27:27;12.30;99.90
21616;DHT22;10970;48.714;9.584;2023-03-24T08:29:52;12.30;99.90
21616;DHT22;10970;48.714;9.584;2023-03-24T08:32:18;12.40;99.90
21616;DHT22;10970;48.714;9.584;2023-03-24T08:34:43;12.50;99.90
21616;DHT22;10970;48.714;9.584;2023-03-24T08:37:09;12.50;99.90
21616;DHT22;10970;48.714;9.584;2023-03-24T08:39:36;12.50;99.90
21616;DHT22;10970;48.714;9.584;2023-03-24T08:42:02;12.50;99.90
21616;DHT22;10970;48.714;9.584;2023-03-24T08:44:28;12.70;99.90
21616;DHT22;10970;48.714;9.584;2023-03-24T08:46:54;12.70;99.90
21616;DHT22;10970;48.714;9.584;2023-03-24T08:49:19;12.80;99.90
21616;DHT22;10970;48.714;9.584;2023-03-24T08:51:45;12.80;99.90
21616;DHT22;10970;48.714;9.584;2023-03-24T08:54:11;12.90;99.90
21616;DHT22;10970;48.714;9.584;2023-03-24T08:56:38;13.00;99.90
21616;DHT22;10970;48.714;9.584;2023-03-24T08:59:04;13.00;99.90
21616;DHT22;10970;48.714;9.584;2023-03-24T09:01:31;13.00;99.90
21616;DHT22;10970;48.714;9.584;2023-03-24T09:03:58;13.00;99.90
21616;DHT22;10970;48.714;9.584;2023-03-24T09:06:24;13.10;99.90
21616;DHT22;10970;48.714;9.584;2023-03-24T09:08:54;13.00;99.90
21616;DHT22;10970;48.714;9.584;2023-03-24T09:11:21;13.10;99.90
21616;DHT22;10970;48.714;9.584;2023-03-24T09:13:47;13.30;99.90
21616;DHT22;10970;48.714;9.584;2023-03-24T09:16:14;13.20;99.90
21616;DHT22;10970;48.714;9.584;2023-03-24T09:18:40;13.30;99.90
21616;DHT22;10970;48.714;9.584;2023-03-24T09:21:07;13.40;99.90
21616;DHT22;10970;48.714;9.584;2023-03-24T09:23:36;13.40;99.90
21616;DHT22;10970;48.714;9.584;2023-03-24T09:26:02;13.40;99.90
21616;DHT22;10970;48.714;9.584;2023-03-24T09:28:28;13.40;99.90
21616;DHT22;10970;48.714;9.584;2023-03-24T09:31:03;13.40;99.90
21616;DHT22;10970;48.714;9.584;2023-03-24T09:33:29;13.50;99.90
21616;DHT22;10970;48.714;9.584;2023-03-24T09:35:57;13.50;99.90
21616;DHT22;10970;48.714;9.584;2023-03-24T09:38:23;13.50;99.90
21616;DHT22;10970;48.714;9.584;2023-03-24T09:40:59;13.60;99.90
21616;DHT22;10970;48.714;9.584;2023-03-24T09:45:57;13.80;99.90
21616;DHT22;10970;48.714;9.584;2023-03-24T09:51:03;14.20;99.90
21616;DHT22;10970;48.714;9.584;2023-03-24T09:53:42;14.40;99.90
21616;DHT22;10970;48.714;9.584;2023-03-24T09:56:13;14.40;99.90
21616;DHT22;10970;48.714;9.584;2023-03-24T09:58:42;14.50;99.90
21616;DHT22;10970;48.714;9.584;2023-03-24T10:01:13;14.60;99.90
21616;DHT22;10970;48.714;9.584;2023-03-24T10:03:43;14.70;99.90
21616;DHT22;10970;48.714;9.584;2023-03-24T10:06:22;14.90;99.90
21616;DHT22;10970;48.714;9.584;2023-03-24T10:11:46;15.00;99.90
21616;DHT22;10970;48.714;9.584;2023-03-24T10:28:37;16.00;99.90
21616;DHT22;10970;48.714;9.584;2023-03-24T10:31:10;16.20;99.90
21616;DHT22;10970;48.714;9.584;2023-03-24T10:33:44;16.40;99.90
21616;DHT22;10970;48.714;9.584;2023-03-24T10:36:11;16.40;99.90
21616;DHT22;10970;48.714;9.584;2023-03-24T10:38:38;16.30;99.90
21616;DHT22;10970;48.714;9.584;2023-03-24T10:41:04;16.20;99.90
21616;DHT22;10970;48.714;9.584;2023-03-24T10:43:30;16.20;99.90
21616;DHT22;10970;48.714;9.584;2023-03-24T10:45:57;16.10;99.90
21616;DHT22;10970;48.714;9.584;2023-03-24T10:51:37;16.40;99.90
21616;DHT22;10970;48.714;9.584;2023-03-24T10:56:39;16.20;99.90
21616;DHT22;10970;48.714;9.584;2023-03-24T10:59:31;16.00;99.90
21616;DHT22;10970;48.714;9.584;2023-03-24T11:04:39;15.80;99.90
21616;DHT22;10970;48.714;9.584;2023-03-24T11:07:20;15.90;99.90
21616;DHT22;10970;48.714;9.584;2023-03-24T11:10:04;15.90;99.90
21616;DHT22;10970;48.714;9.584;2023-03-24T11:12:32;15.90;99.90
21616;DHT22;10970;48.714;9.584;2023-03-24T11:15:22;15.90;99.90
21616;DHT22;10970;48.714;9.584;2023-03-24T11:20:34;15.70;99.90
21616;DHT22;10970;48.714;9.584;2023-03-24T11:23:37;15.70;99.90
21616;DHT22;10970;48.714;9.584;2023-03-24T11:26:14;15.80;99.90
21616;DHT22;10970;48.714;9.584;2023-03-24T11:28:50;15.80;99.90
21616;DHT22;10970;48.714;9.584;2023-03-24T11:31:37;15.80;99.90
21616;DHT22;10970;48.714;9.584;2023-03-24T11:39:23;16.00;99.90
21616;DHT22;10970;48.714;9.584;2023-03-24T11:42:02;16.00;99.90
21616;DHT22;10970;48.714;9.584;2023-03-24T11:55:18;16.50;99.90
21616;DHT22;10970;48.714;9.584;2023-03-24T11:57:56;16.50;99.90
21616;DHT22;10970;48.714;9.584;2023-03-24T12:00:24;16.40;99.90
21616;DHT22;10970;48.714;9.584;2023-03-24T12:06:41;16.20;99.90
21616;DHT22;10970;48.714;9.584;2023-03-24T12:14:04;16.60;99.90
21616;DHT22;10970;48.714;9.584;2023-03-24T12:16:42;16.40;99.90
21616;DHT22;10970;48.714;9.584;2023-03-24T12:19:31;16.20;99.90
21616;DHT22;10970;48.714;9.584;2023-03-24T12:22:10;16.00;99.90
21616;DHT22;10970;48.714;9.584;2023-03-24T12:25:02;16.00;99.90
21616;DHT22;10970;48.714;9.584;2023-03-24T12:27:55;16.10;99.90
21616;DHT22;10970;48.714;9.584;2023-03-24T12:39:11;16.00;99.90
21616;DHT22;10970;48.714;9.584;2023-03-24T12:55:43;15.80;99.90
21616;DHT22;10970;48.714;9.584;2023-03-24T13:03:40;15.50;99.90
21616;DHT22;10970;48.714;9.584;2023-03-24T13:06:24;15.50;99.90
21616;DHT22;10970;48.714;9.584;2023-03-24T13:11:45;15.50;99.90
21616;DHT22;10970;48.714;9.584;2023-03-24T13:14:18;15.40;99.90
21616;DHT22;10970;48.714;9.584;2023-03-24T13:16:47;15.30;99.90
21616;DHT22;10970;48.714;9.584;2023-03-24T13:19:20;15.20;99.90
21616;DHT22;10970;48.714;9.584;2023-03-24T13:21:50;15.20;99.90
21616;DHT22;10970;48.714;9.584;2023-03-24T13:24:17;15.30;99.90
21616;DHT22;10970;48.714;9.584;2023-03-24T13:27:30;15.30;99.90
21616;DHT22;10970;48.714;9.584;2023-03-24T13:32:29;15.50;99.90
21616;DHT22;10970;48.714;9.584;2023-03-24T13:35:30;15.40;99.90
21616;DHT22;10970;48.714;9.584;2023-03-24T13:40:40;15.30;99.90
21616;DHT22;10970;48.714;9.584;2023-03-24T13:43:18;15.20;99.90
21616;DHT22;10970;48.714;9.584;2023-03-24T13:50:41;15.20;99.90
21616;DHT22;10970;48.714;9.584;2023-03-24T13:53:14;15.10;99.90
21616;DHT22;10970;48.714;9.584;2023-03-24T13:55:47;15.10;99.90
21616;DHT22;10970;48.714;9.584;2023-03-24T13:58:19;15.10;99.90
21616;DHT22;10970;48.714;9.584;2023-03-24T14:01:29;15.10;99.90
21616;DHT22;10970;48.714;9.584;2023-03-24T14:09:29;15.00;99.90
21616;DHT22;10970;48.714;9.584;2023-03-24T14:14:29;14.80;99.90
21616;DHT22;10970;48.714;9.584;2023-03-24T14:17:14;14.70;99.90
21616;DHT22;10970;48.714;9.584;2023-03-24T14:22:29;14.70;99.90
21616;DHT22;10970;48.714;9.584;2023-03-24T14:27:36;14.60;99.90
21616;DHT22;10970;48.714;9.584;2023-03-24T14:30:26;14.60;99.90
21616;DHT22;10970;48.714;9.584;2023-03-24T14:32:56;14.50;99.90
21616;DHT22;10970;48.714;9.584;2023-03-24T14:37:57;14.30;99.90
21616;DHT22;10970;48.714;9.584;2023-03-24T14:40:39;14.30;99.90
21616;DHT22;10970;48.714;9.584;2023-03-24T14:43:27;14.30;99.90
21616;DHT22;10970;48.714;9.584;2023-03-24T14:46:00;14.20;99.90
21616;DHT22;10970;48.714;9.584;2023-03-24T14:50:59;14.20;99.90
21616;DHT22;10970;48.714;9.584;2023-03-24T14:53:26;14.20;99.90
21616;DHT22;10970;48.714;9.584;2023-03-24T14:55:52;14.20;99.90
21616;DHT22;10970;48.714;9.584;2023-03-24T14:58:31;14.20;99.90
21616;DHT22;10970;48.714;9.584;2023-03-24T15:01:03;14.10;99.90
21616;DHT22;10970;48.714;9.584;2023-03-24T15:04:00;14.10;99.90
21616;DHT22;10970;48.714;9.584;2023-03-24T15:06:26;13.90;99.90
21616;DHT22;10970;48.714;9.584;2023-03-24T15:08:56;13.50;99.90
21616;DHT22;10970;48.714;9.584;2023-03-24T15:11:35;13.30;99.90
21616;DHT22;10970;48.714;9.584;2023-03-24T15:14:18;13.20;99.90
21616;DHT22;10970;48.714;9.584;2023-03-24T15:16:54;13.20;99.90
21616;DHT22;10970;48.714;9.584;2023-03-24T15:19:23;13.10;99.90
21616;DHT22;10970;48.714;9.584;2023-03-24T15:22:00;13.10;99.90
21616;DHT22;10970;48.714;9.584;2023-03-24T15:24:29;13.20;99.90
21616;DHT22;10970;48.714;9.584;2023-03-24T15:29:40;13.40;99.90
21616;DHT22;10970;48.714;9.584;2023-03-24T15:32:18;13.50;99.90
21616;DHT22;10970;48.714;9.584;2023-03-24T15:34:55;13.60;99.90
21616;DHT22;10970;48.714;9.584;2023-03-24T15:37:33;13.70;99.90
21616;DHT22;10970;48.714;9.584;2023-03-24T15:39:59;13.80;99.90
21616;DHT22;10970;48.714;9.584;2023-03-24T15:42:25;13.80;99.90
21616;DHT22;10970;48.714;9.584;2023-03-24T15:44:52;13.80;99.90
21616;DHT22;10970;48.714;9.584;2023-03-24T15:47:27;13.80;99.90
21616;DHT22;10970;48.714;9.584;2023-03-24T15:49:56;13.80;99.90
21616;DHT22;10970;48.714;9.584;2023-03-24T15:52:34;13.80;99.90
21616;DHT22;10970;48.714;9.584;2023-03-24T15:57:55;13.70;99.90
21616;DHT22;10970;48.714;9.584;2023-03-24T16:00:27;13.70;99.90
21616;DHT22;10970;48.714;9.584;2023-03-24T16:02:55;13.60;99.90
21616;DHT22;10970;48.714;9.584;2023-03-24T16:05:30;13.60;99.90
21616;DHT22;10970;48.714;9.584;2023-03-24T16:08:07;13.40;99.90
21616;DHT22;10970;48.714;9.584;2023-03-24T16:10:57;13.10;99.90
21616;DHT22;10970;48.714;9.584;2023-03-24T16:13:23;12.90;99.90
21616;DHT22;10970;48.714;9.584;2023-03-24T16:16:00;12.60;99.90
21616;DHT22;10970;48.714;9.584;2023-03-24T16:18:37;12.20;99.90
21616;DHT22;10970;48.714;9.584;2023-03-24T16:21:20;11.80;99.90
21616;DHT22;10970;48.714;9.584;2023-03-24T16:23:48;11.60;99.90
21616;DHT22;10970;48.714;9.584;2023-03-24T16:26:22;11.50;99.90
21616;DHT22;10970;48.714;9.584;2023-03-24T16:28:48;11.40;99.90
21616;DHT22;10970;48.714;9.584;2023-03-24T16:31:29;11.40;99.90
21616;DHT22;10970;48.714;9.584;2023-03-24T16:33:56;11.30;99.90
21616;DHT22;10970;48.714;9.584;2023-03-24T16:36:22;11.30;99.90
21616;DHT22;10970;48.714;9.584;2023-03-24T16:38:51;11.30;99.90
21616;DHT22;10970;48.714;9.584;2023-03-24T16:41:17;11.20;99.90
21616;DHT22;10970;48.714;9.584;2023-03-24T16:43:44;11.20;99.90
21616;DHT22;10970;48.714;9.584;2023-03-24T16:46:19;11.10;99.90
21616;DHT22;10970;48.714;9.584;2023-03-24T16:48:45;11.20;99.90
21616;DHT22;10970;48.714;9.584;2023-03-24T16:51:13;11.40;99.90
21616;DHT22;10970;48.714;9.584;2023-03-24T16:53:39;11.40;99.90
21616;DHT22;10970;48.714;9.584;2023-03-24T16:56:06;11.50;99.90
21616;DHT22;10970;48.714;9.584;2023-03-24T16:58:32;11.60;99.90
21616;DHT22;10970;48.714;9.584;2023-03-24T17:00:57;11.70;99.90
21616;DHT22;10970;48.714;9.584;2023-03-24T17:03:24;11.70;99.90
21616;DHT22;10970;48.714;9.584;2023-03-24T17:05:54;11.60;99.90
21616;DHT22;10970;48.714;9.584;2023-03-24T17:08:20;11.60;99.90
21616;DHT22;10970;48.714;9.584;2023-03-24T17:10:49;11.60;99.90
21616;DHT22;10970;48.714;9.584;2023-03-24T17:13:21;11.60;99.90
21616;DHT22;10970;48.714;9.584;2023-03-24T17:15:47;11.50;99.90
21616;DHT22;10970;48.714;9.584;2023-03-24T17:18:13;11.50;99.90
21616;DHT22;10970;48.714;9.584;2023-03-24T17:20:39;11.50;99.90
21616;DHT22;10970;48.714;9.584;2023-03-24T17:23:07;11.60;99.90
21616;DHT22;10970;48.714;9.584;2023-03-24T17:25:33;11.60;99.90
21616;DHT22;10970;48.714;9.584;2023-03-24T17:27:59;11.60;99.90
21616;DHT22;10970;48.714;9.584;2023-03-24T17:30:26;11.60;99.90
21616;DHT22;10970;48.714;9.584;2023-03-24T17:32:52;11.50;99.90
21616;DHT22;10970;48.714;9.584;2023-03-24T17:35:20;11.40;99.90
21616;DHT22;10970;48.714;9.584;2023-03-24T17:37:47;11.40;99.90
21616;DHT22;10970;48.714;9.584;2023-03-24T17:40:15;11.40;99.90
21616;DHT22;10970;48.714;9.584;2023-03-24T17:42:43;11.40;99.90
21616;DHT22;10970;48.714;9.584;2023-03-24T17:45:11;11.30;99.90
21616;DHT22;10970;48.714;9.584;2023-03-24T17:47:38;11.30;99.90
21616;DHT22;10970;48.714;9.584;2023-03-24T17:50:05;11.30;99.90
21616;DHT22;10970;48.714;9.584;2023-03-24T17:52:35;11.30;99.90
21616;DHT22;10970;48.714;9.584;2023-03-24T17:55:02;11.20;99.90
21616;DHT22;10970;48.714;9.584;2023-03-24T17:57:29;11.20;99.90
21616;DHT22;10970;48.714;9.584;2023-03-24T17:59:55;11.10;99.90
21616;DHT22;10970;48.714;9.584;2023-03-24T18:02:21;11.10;99.90
21616;DHT22;10970;48.714;9.584;2023-03-24T18:04:47;11.10;99.90
21616;DHT22;10970;48.714;9.584;2023-03-24T18:07:13;11.00;99.90
21616;DHT22;10970;48.714;9.584;2023-03-24T18:09:39;11.10;99.90
21616;DHT22;10970;48.714;9.584;2023-03-24T18:12:05;11.00;99.90
21616;DHT22;10970;48.714;9.584;2023-03-24T18:14:30;11.10;99.90
21616;DHT22;10970;48.714;9.584;2023-03-24T18:16:56;11.10;99.90
21616;DHT22;10970;48.714;9.584;2023-03-24T18:19:22;11.00;99.90
21616;DHT22;10970;48.714;9.584;2023-03-24T18:21:48;11.00;99.90
21616;DHT22;10970;48.714;9.584;2023-03-24T18:24:14;10.90;99.90
21616;DHT22;10970;48.714;9.584;2023-03-24T18:26:40;10.90;99.90
21616;DHT22;10970;48.714;9.584;2023-03-24T18:29:05;10.90;99.90
21616;DHT22;10970;48.714;9.584;2023-03-24T18:31:31;10.90;99.90
21616;DHT22;10970;48.714;9.584;2023-03-24T18:33:58;10.80;99.90
21616;DHT22;10970;48.714;9.584;2023-03-24T18:36:24;10.70;99.90
21616;DHT22;10970;48.714;9.584;2023-03-24T18:38:58;10.70;99.90
21616;DHT22;10970;48.714;9.584;2023-03-24T18:41:26;10.70;99.90
21616;DHT22;10970;48.714;9.584;2023-03-24T18:43:54;10.80;99.90
21616;DHT22;10970;48.714;9.584;2023-03-24T18:46:21;10.80;99.90